Ana Sayfa
METAR-TAF:

METAR-TAF

Havaalanları :

El Salvador, El Salvador

Enlem: 13-26N, Boylam: 089-03W, yükseklik: 25 m

Güncel hava durumu gözlemi

Rapor saat 08:50 UTC de 27 dakika önce yapıldı.
Rüzgar kuzeydoğudan 6 kt
Sıcaklık 24°C
Nem 57%
Basınç 1012 hPa
Görüş mesafesi 10 km veya daha fazla
1500 m altında bulut yok ve kümülonimbus yok

METAR: MSLP 190850Z 04006KT CAVOK 24/15 Q1012 A2989 NOSIG

Saat: 03:17 (09:17 UTC)

Tahmin

Rapor saat 03:25 UTC de 5 saat ve 52 dakika önce yapıldı.
Ayın 19'si saat 06 UTC'den ayın 20'si saat 06 UTC'ye kadar geçerli Tahmin
Rüzgar kuzeydan 12 kt ve 27 kt'a kadar ani rüzgarlar
Görüş mesafesi 10 km veya daha fazla
1500 m altında bulut yok ve kümülonimbus yok

TAF: MSLP 190325Z 1906/2006 01012G27KT CAVOK TX33/1918Z TN22/1912Z

4.000'den fazla havaalanı için hava durumu gözlemleri ve tahminleri (METAR ve TAF raporları).

Kullanılabilir istasyonlar harita üzerinde sarı ve kırmızı noktalarla gösterilir.

İstasyonun adını görmek için fareyi noktanın üzerinde gezdirin.

Sonrasında hava gözlem ve tahminlerini görmek için tıklayın.

Haritayı değiştirmek için: yaklaştırmak için siyah artı işaretli yeşil düğmeye ve uzaklaştırmak için de eksi işaretli düğmeye hızla tıklayın; bitişik haritalar için yeşil okları kullanın.


METAR-TAF: